sensor_id;sensor_type;location;lat;lon;timestamp;P1;durP1;ratioP1;P2;durP2;ratioP2
3881;SDS011;1956;53.482;10.238;2023-02-28T00:02:44;3.87;;;2.63;;
3881;SDS011;1956;53.482;10.238;2023-02-28T00:07:45;5.97;;;3.40;;
3881;SDS011;1956;53.482;10.238;2023-02-28T00:12:49;4.67;;;2.87;;
3881;SDS011;1956;53.482;10.238;2023-02-28T00:17:50;7.23;;;2.73;;
3881;SDS011;1956;53.482;10.238;2023-02-28T00:22:52;4.00;;;2.93;;
3881;SDS011;1956;53.482;10.238;2023-02-28T00:27:53;5.70;;;3.13;;
3881;SDS011;1956;53.482;10.238;2023-02-28T00:32:53;5.53;;;2.67;;
3881;SDS011;1956;53.482;10.238;2023-02-28T00:37:53;8.50;;;2.70;;
3881;SDS011;1956;53.482;10.238;2023-02-28T00:42:54;9.87;;;2.77;;
3881;SDS011;1956;53.482;10.238;2023-02-28T00:47:54;5.30;;;2.40;;
3881;SDS011;1956;53.482;10.238;2023-02-28T00:52:54;4.93;;;2.37;;
3881;SDS011;1956;53.482;10.238;2023-02-28T00:57:55;4.57;;;2.80;;
3881;SDS011;1956;53.482;10.238;2023-02-28T01:02:55;2.97;;;2.57;;
3881;SDS011;1956;53.482;10.238;2023-02-28T01:07:55;3.10;;;2.70;;
3881;SDS011;1956;53.482;10.238;2023-02-28T01:12:56;4.47;;;3.10;;
3881;SDS011;1956;53.482;10.238;2023-02-28T01:17:56;9.80;;;2.90;;
3881;SDS011;1956;53.482;10.238;2023-02-28T01:22:56;5.43;;;3.10;;
3881;SDS011;1956;53.482;10.238;2023-02-28T01:27:57;4.63;;;2.90;;
3881;SDS011;1956;53.482;10.238;2023-02-28T01:32:57;5.53;;;3.93;;
3881;SDS011;1956;53.482;10.238;2023-02-28T01:37:58;6.50;;;3.30;;
3881;SDS011;1956;53.482;10.238;2023-02-28T01:42:58;4.33;;;3.40;;
3881;SDS011;1956;53.482;10.238;2023-02-28T01:48:00;4.23;;;3.07;;
3881;SDS011;1956;53.482;10.238;2023-02-28T01:53:04;6.90;;;3.30;;
3881;SDS011;1956;53.482;10.238;2023-02-28T01:58:06;15.30;;;4.23;;
3881;SDS011;1956;53.482;10.238;2023-02-28T02:03:10;5.80;;;4.10;;
3881;SDS011;1956;53.482;10.238;2023-02-28T02:08:20;6.97;;;3.30;;
3881;SDS011;1956;53.482;10.238;2023-02-28T02:13:28;6.90;;;3.43;;
3881;SDS011;1956;53.482;10.238;2023-02-28T02:18:46;7.37;;;2.97;;
3881;SDS011;1956;53.482;10.238;2023-02-28T02:29:42;9.50;;;3.10;;
3881;SDS011;1956;53.482;10.238;2023-02-28T02:34:59;4.27;;;3.10;;
3881;SDS011;1956;53.482;10.238;2023-02-28T02:40:14;17.57;;;3.30;;
3881;SDS011;1956;53.482;10.238;2023-02-28T02:45:31;7.60;;;2.77;;
3881;SDS011;1956;53.482;10.238;2023-02-28T02:50:53;5.90;;;3.20;;
3881;SDS011;1956;53.482;10.238;2023-02-28T02:55:55;9.53;;;3.40;;
3881;SDS011;1956;53.482;10.238;2023-02-28T03:00:58;6.40;;;3.17;;
3881;SDS011;1956;53.482;10.238;2023-02-28T03:06:00;5.37;;;3.93;;
3881;SDS011;1956;53.482;10.238;2023-02-28T03:11:09;10.57;;;3.53;;
3881;SDS011;1956;53.482;10.238;2023-02-28T03:16:28;10.73;;;3.80;;
3881;SDS011;1956;53.482;10.238;2023-02-28T03:27:42;7.10;;;3.60;;
3881;SDS011;1956;53.482;10.238;2023-02-28T03:33:10;4.30;;;3.23;;
3881;SDS011;1956;53.482;10.238;2023-02-28T03:38:28;7.83;;;3.20;;
3881;SDS011;1956;53.482;10.238;2023-02-28T03:43:32;6.43;;;2.87;;
3881;SDS011;1956;53.482;10.238;2023-02-28T03:48:38;4.53;;;3.10;;
3881;SDS011;1956;53.482;10.238;2023-02-28T03:53:45;3.87;;;3.23;;
3881;SDS011;1956;53.482;10.238;2023-02-28T03:58:53;4.27;;;3.30;;
3881;SDS011;1956;53.482;10.238;2023-02-28T04:03:55;4.73;;;3.37;;
3881;SDS011;1956;53.482;10.238;2023-02-28T04:08:56;3.00;;;2.70;;
3881;SDS011;1956;53.482;10.238;2023-02-28T04:13:56;5.03;;;2.87;;
3881;SDS011;1956;53.482;10.238;2023-02-28T04:18:57;9.27;;;3.50;;
3881;SDS011;1956;53.482;10.238;2023-02-28T04:24:02;5.40;;;3.40;;
3881;SDS011;1956;53.482;10.238;2023-02-28T04:29:03;6.30;;;3.60;;
3881;SDS011;1956;53.482;10.238;2023-02-28T04:34:05;3.20;;;2.90;;
3881;SDS011;1956;53.482;10.238;2023-02-28T04:39:05;6.33;;;3.07;;
3881;SDS011;1956;53.482;10.238;2023-02-28T04:44:06;7.87;;;3.10;;
3881;SDS011;1956;53.482;10.238;2023-02-28T04:49:06;5.93;;;3.27;;
3881;SDS011;1956;53.482;10.238;2023-02-28T04:54:08;6.23;;;3.87;;
3881;SDS011;1956;53.482;10.238;2023-02-28T04:59:08;4.13;;;3.10;;
3881;SDS011;1956;53.482;10.238;2023-02-28T05:04:09;5.47;;;3.27;;
3881;SDS011;1956;53.482;10.238;2023-02-28T05:09:09;6.03;;;3.20;;
3881;SDS011;1956;53.482;10.238;2023-02-28T05:14:12;4.87;;;3.33;;
3881;SDS011;1956;53.482;10.238;2023-02-28T05:19:13;9.37;;;3.13;;
3881;SDS011;1956;53.482;10.238;2023-02-28T05:24:14;6.63;;;2.97;;
3881;SDS011;1956;53.482;10.238;2023-02-28T05:29:14;10.63;;;3.60;;
3881;SDS011;1956;53.482;10.238;2023-02-28T05:34:14;5.00;;;3.05;;
3881;SDS011;1956;53.482;10.238;2023-02-28T05:39:16;6.70;;;2.87;;
3881;SDS011;1956;53.482;10.238;2023-02-28T05:44:16;7.33;;;3.17;;
3881;SDS011;1956;53.482;10.238;2023-02-28T05:49:16;4.37;;;3.07;;
3881;SDS011;1956;53.482;10.238;2023-02-28T05:54:17;4.60;;;3.80;;
3881;SDS011;1956;53.482;10.238;2023-02-28T05:59:17;11.87;;;4.23;;
3881;SDS011;1956;53.482;10.238;2023-02-28T06:04:19;11.50;;;3.23;;
3881;SDS011;1956;53.482;10.238;2023-02-28T06:09:20;9.30;;;5.67;;
3881;SDS011;1956;53.482;10.238;2023-02-28T06:14:20;5.33;;;4.20;;
3881;SDS011;1956;53.482;10.238;2023-02-28T06:19:21;6.40;;;4.10;;
3881;SDS011;1956;53.482;10.238;2023-02-28T06:24:23;6.70;;;3.73;;
3881;SDS011;1956;53.482;10.238;2023-02-28T06:29:24;10.40;;;4.43;;
3881;SDS011;1956;53.482;10.238;2023-02-28T06:34:25;4.80;;;4.30;;
3881;SDS011;1956;53.482;10.238;2023-02-28T06:39:25;14.17;;;3.83;;
3881;SDS011;1956;53.482;10.238;2023-02-28T06:44:25;8.50;;;4.17;;
3881;SDS011;1956;53.482;10.238;2023-02-28T06:49:26;15.13;;;4.40;;
3881;SDS011;1956;53.482;10.238;2023-02-28T06:54:27;13.17;;;5.00;;
3881;SDS011;1956;53.482;10.238;2023-02-28T06:59:27;6.70;;;4.77;;
3881;SDS011;1956;53.482;10.238;2023-02-28T07:04:28;8.30;;;5.03;;
3881;SDS011;1956;53.482;10.238;2023-02-28T07:09:28;10.53;;;5.20;;
3881;SDS011;1956;53.482;10.238;2023-02-28T07:14:29;8.20;;;4.50;;
3881;SDS011;1956;53.482;10.238;2023-02-28T07:19:30;6.67;;;3.90;;
3881;SDS011;1956;53.482;10.238;2023-02-28T07:24:30;7.20;;;4.80;;
3881;SDS011;1956;53.482;10.238;2023-02-28T07:29:30;6.23;;;4.60;;
3881;SDS011;1956;53.482;10.238;2023-02-28T07:34:31;7.47;;;4.53;;
3881;SDS011;1956;53.482;10.238;2023-02-28T07:39:31;8.83;;;6.10;;
3881;SDS011;1956;53.482;10.238;2023-02-28T07:44:32;14.70;;;7.57;;
3881;SDS011;1956;53.482;10.238;2023-02-28T07:49:32;10.20;;;6.50;;
3881;SDS011;1956;53.482;10.238;2023-02-28T07:54:33;8.53;;;6.53;;
3881;SDS011;1956;53.482;10.238;2023-02-28T07:59:33;9.80;;;6.53;;
3881;SDS011;1956;53.482;10.238;2023-02-28T08:04:34;14.40;;;8.33;;
3881;SDS011;1956;53.482;10.238;2023-02-28T08:09:35;15.63;;;7.60;;
3881;SDS011;1956;53.482;10.238;2023-02-28T08:14:35;9.83;;;7.47;;
3881;SDS011;1956;53.482;10.238;2023-02-28T08:19:36;12.03;;;7.77;;
3881;SDS011;1956;53.482;10.238;2023-02-28T08:24:36;12.73;;;7.10;;
3881;SDS011;1956;53.482;10.238;2023-02-28T08:29:37;9.73;;;6.93;;
3881;SDS011;1956;53.482;10.238;2023-02-28T08:34:38;11.77;;;7.53;;
3881;SDS011;1956;53.482;10.238;2023-02-28T08:39:40;11.53;;;6.10;;
3881;SDS011;1956;53.482;10.238;2023-02-28T08:44:40;9.27;;;6.90;;
3881;SDS011;1956;53.482;10.238;2023-02-28T08:49:40;9.93;;;6.97;;
3881;SDS011;1956;53.482;10.238;2023-02-28T08:54:41;8.47;;;6.73;;
3881;SDS011;1956;53.482;10.238;2023-02-28T08:59:41;9.23;;;7.07;;
3881;SDS011;1956;53.482;10.238;2023-02-28T09:04:42;9.50;;;6.23;;
3881;SDS011;1956;53.482;10.238;2023-02-28T09:09:42;9.60;;;6.47;;
3881;SDS011;1956;53.482;10.238;2023-02-28T09:14:53;11.43;;;4.77;;
3881;SDS011;1956;53.482;10.238;2023-02-28T09:19:54;8.47;;;5.30;;
3881;SDS011;1956;53.482;10.238;2023-02-28T09:24:54;12.20;;;5.50;;
3881;SDS011;1956;53.482;10.238;2023-02-28T09:29:54;11.10;;;4.43;;
3881;SDS011;1956;53.482;10.238;2023-02-28T09:34:55;8.80;;;4.33;;
3881;SDS011;1956;53.482;10.238;2023-02-28T09:39:55;9.37;;;4.50;;
3881;SDS011;1956;53.482;10.238;2023-02-28T09:44:55;5.50;;;4.03;;
3881;SDS011;1956;53.482;10.238;2023-02-28T09:49:57;3.80;;;2.90;;
3881;SDS011;1956;53.482;10.238;2023-02-28T09:55:04;12.23;;;3.17;;
3881;SDS011;1956;53.482;10.238;2023-02-28T10:00:20;9.33;;;3.57;;
3881;SDS011;1956;53.482;10.238;2023-02-28T10:05:30;2.13;;;2.00;;
3881;SDS011;1956;53.482;10.238;2023-02-28T10:10:43;6.93;;;2.00;;
3881;SDS011;1956;53.482;10.238;2023-02-28T10:15:45;3.73;;;1.63;;
3881;SDS011;1956;53.482;10.238;2023-02-28T10:20:47;5.07;;;1.37;;
3881;SDS011;1956;53.482;10.238;2023-02-28T10:25:59;2.13;;;1.17;;
3881;SDS011;1956;53.482;10.238;2023-02-28T10:31:01;3.23;;;1.17;;
3881;SDS011;1956;53.482;10.238;2023-02-28T10:36:02;2.60;;;1.27;;
3881;SDS011;1956;53.482;10.238;2023-02-28T10:41:16;6.50;;;1.30;;
3881;SDS011;1956;53.482;10.238;2023-02-28T10:46:27;1.20;;;1.00;;
3881;SDS011;1956;53.482;10.238;2023-02-28T10:51:37;3.10;;;1.07;;
3881;SDS011;1956;53.482;10.238;2023-02-28T10:56:38;2.10;;;0.93;;
3881;SDS011;1956;53.482;10.238;2023-02-28T11:01:40;1.50;;;1.13;;
3881;SDS011;1956;53.482;10.238;2023-02-28T11:06:41;1.43;;;1.33;;
3881;SDS011;1956;53.482;10.238;2023-02-28T11:11:45;4.20;;;1.47;;
3881;SDS011;1956;53.482;10.238;2023-02-28T11:16:47;7.30;;;1.80;;
3881;SDS011;1956;53.482;10.238;2023-02-28T11:21:53;3.00;;;1.33;;
3881;SDS011;1956;53.482;10.238;2023-02-28T11:26:55;4.23;;;1.50;;
3881;SDS011;1956;53.482;10.238;2023-02-28T11:37:24;1.87;;;1.20;;
3881;SDS011;1956;53.482;10.238;2023-02-28T11:42:45;1.60;;;1.30;;
3881;SDS011;1956;53.482;10.238;2023-02-28T11:53:40;2.50;;;1.70;;
3881;SDS011;1956;53.482;10.238;2023-02-28T12:10:35;1.77;;;1.50;;
3881;SDS011;1956;53.482;10.238;2023-02-28T12:21:47;3.20;;;1.20;;
3881;SDS011;1956;53.482;10.238;2023-02-28T12:26:53;2.30;;;1.10;;
3881;SDS011;1956;53.482;10.238;2023-02-28T12:31:56;1.57;;;1.30;;
3881;SDS011;1956;53.482;10.238;2023-02-28T12:37:01;1.37;;;1.20;;
3881;SDS011;1956;53.482;10.238;2023-02-28T12:42:10;3.43;;;1.83;;
3881;SDS011;1956;53.482;10.238;2023-02-28T12:47:15;1.23;;;1.13;;
3881;SDS011;1956;53.482;10.238;2023-02-28T12:52:22;3.80;;;1.43;;
3881;SDS011;1956;53.482;10.238;2023-02-28T12:57:34;1.30;;;1.20;;
3881;SDS011;1956;53.482;10.238;2023-02-28T13:08:22;1.97;;;1.40;;
3881;SDS011;1956;53.482;10.238;2023-02-28T13:14:03;2.47;;;2.27;;
3881;SDS011;1956;53.482;10.238;2023-02-28T13:19:09;3.03;;;1.40;;
3881;SDS011;1956;53.482;10.238;2023-02-28T13:24:11;3.37;;;1.67;;
3881;SDS011;1956;53.482;10.238;2023-02-28T13:29:21;2.87;;;1.53;;
3881;SDS011;1956;53.482;10.238;2023-02-28T13:34:28;4.53;;;1.73;;
3881;SDS011;1956;53.482;10.238;2023-02-28T13:50:27;2.57;;;1.40;;
3881;SDS011;1956;53.482;10.238;2023-02-28T14:01:13;3.60;;;2.00;;
3881;SDS011;1956;53.482;10.238;2023-02-28T14:06:29;2.40;;;1.70;;
3881;SDS011;1956;53.482;10.238;2023-02-28T14:11:36;3.00;;;1.50;;
3881;SDS011;1956;53.482;10.238;2023-02-28T14:16:43;2.60;;;1.60;;
3881;SDS011;1956;53.482;10.238;2023-02-28T14:27:56;16.53;;;10.57;;
3881;SDS011;1956;53.482;10.238;2023-02-28T14:33:53;2.13;;;1.50;;
3881;SDS011;1956;53.482;10.238;2023-02-28T14:39:13;3.53;;;3.23;;
3881;SDS011;1956;53.482;10.238;2023-02-28T14:44:25;3.73;;;2.00;;
3881;SDS011;1956;53.482;10.238;2023-02-28T14:49:34;4.83;;;1.43;;
3881;SDS011;1956;53.482;10.238;2023-02-28T14:54:37;2.83;;;1.60;;
3881;SDS011;1956;53.482;10.238;2023-02-28T14:59:37;2.13;;;1.40;;
3881;SDS011;1956;53.482;10.238;2023-02-28T15:04:38;2.00;;;1.20;;
3881;SDS011;1956;53.482;10.238;2023-02-28T15:09:38;3.00;;;1.87;;
3881;SDS011;1956;53.482;10.238;2023-02-28T15:14:39;6.00;;;1.87;;
3881;SDS011;1956;53.482;10.238;2023-02-28T15:19:42;2.47;;;1.57;;
3881;SDS011;1956;53.482;10.238;2023-02-28T15:24:50;1.87;;;1.40;;
3881;SDS011;1956;53.482;10.238;2023-02-28T15:29:53;2.97;;;1.70;;
3881;SDS011;1956;53.482;10.238;2023-02-28T15:34:59;3.40;;;1.50;;
3881;SDS011;1956;53.482;10.238;2023-02-28T15:40:31;3.40;;;2.10;;
3881;SDS011;1956;53.482;10.238;2023-02-28T15:45:41;1.83;;;1.70;;
3881;SDS011;1956;53.482;10.238;2023-02-28T15:50:52;3.43;;;1.80;;
3881;SDS011;1956;53.482;10.238;2023-02-28T15:55:55;2.30;;;2.00;;
3881;SDS011;1956;53.482;10.238;2023-02-28T16:01:07;2.37;;;2.17;;
3881;SDS011;1956;53.482;10.238;2023-02-28T16:06:37;4.30;;;2.00;;
3881;SDS011;1956;53.482;10.238;2023-02-28T16:11:55;2.10;;;1.90;;
3881;SDS011;1956;53.482;10.238;2023-02-28T16:17:02;8.00;;;1.97;;
3881;SDS011;1956;53.482;10.238;2023-02-28T16:22:04;6.20;;;1.97;;
3881;SDS011;1956;53.482;10.238;2023-02-28T16:27:04;1.73;;;1.33;;
3881;SDS011;1956;53.482;10.238;2023-02-28T16:32:05;2.90;;;1.90;;
3881;SDS011;1956;53.482;10.238;2023-02-28T16:37:10;3.03;;;2.17;;
3881;SDS011;1956;53.482;10.238;2023-02-28T16:42:17;2.33;;;2.00;;
3881;SDS011;1956;53.482;10.238;2023-02-28T16:47:22;3.00;;;1.90;;
3881;SDS011;1956;53.482;10.238;2023-02-28T16:52:22;2.47;;;1.87;;
3881;SDS011;1956;53.482;10.238;2023-02-28T16:57:22;4.60;;;2.03;;
3881;SDS011;1956;53.482;10.238;2023-02-28T17:02:23;4.03;;;1.63;;
3881;SDS011;1956;53.482;10.238;2023-02-28T17:07:23;3.97;;;1.60;;
3881;SDS011;1956;53.482;10.238;2023-02-28T17:12:24;1.53;;;1.33;;
3881;SDS011;1956;53.482;10.238;2023-02-28T17:17:24;2.10;;;1.67;;
3881;SDS011;1956;53.482;10.238;2023-02-28T17:22:25;1.27;;;0.90;;
3881;SDS011;1956;53.482;10.238;2023-02-28T17:27:25;2.03;;;1.47;;
3881;SDS011;1956;53.482;10.238;2023-02-28T17:32:26;1.30;;;0.80;;
3881;SDS011;1956;53.482;10.238;2023-02-28T17:37:27;1.30;;;1.20;;
3881;SDS011;1956;53.482;10.238;2023-02-28T17:42:28;4.07;;;1.43;;
3881;SDS011;1956;53.482;10.238;2023-02-28T17:47:28;1.37;;;1.17;;
3881;SDS011;1956;53.482;10.238;2023-02-28T17:52:28;3.87;;;1.47;;
3881;SDS011;1956;53.482;10.238;2023-02-28T17:57:29;1.50;;;1.37;;
3881;SDS011;1956;53.482;10.238;2023-02-28T18:02:29;3.03;;;1.10;;
3881;SDS011;1956;53.482;10.238;2023-02-28T18:07:30;2.90;;;1.50;;
3881;SDS011;1956;53.482;10.238;2023-02-28T18:12:30;6.93;;;1.50;;
3881;SDS011;1956;53.482;10.238;2023-02-28T18:17:31;1.37;;;1.23;;
3881;SDS011;1956;53.482;10.238;2023-02-28T18:22:31;2.50;;;1.23;;
3881;SDS011;1956;53.482;10.238;2023-02-28T18:27:32;2.60;;;1.40;;
3881;SDS011;1956;53.482;10.238;2023-02-28T18:32:32;2.00;;;1.60;;
3881;SDS011;1956;53.482;10.238;2023-02-28T18:37:32;2.90;;;2.70;;
3881;SDS011;1956;53.482;10.238;2023-02-28T18:42:33;5.37;;;3.80;;
3881;SDS011;1956;53.482;10.238;2023-02-28T18:47:33;8.77;;;5.80;;
3881;SDS011;1956;53.482;10.238;2023-02-28T18:52:34;12.90;;;5.60;;
3881;SDS011;1956;53.482;10.238;2023-02-28T18:57:34;12.03;;;7.67;;
3881;SDS011;1956;53.482;10.238;2023-02-28T19:02:35;11.57;;;6.97;;
3881;SDS011;1956;53.482;10.238;2023-02-28T19:07:36;12.90;;;7.67;;
3881;SDS011;1956;53.482;10.238;2023-02-28T19:12:36;10.93;;;6.67;;
3881;SDS011;1956;53.482;10.238;2023-02-28T19:17:38;5.60;;;3.80;;
3881;SDS011;1956;53.482;10.238;2023-02-28T19:22:38;7.10;;;4.33;;
3881;SDS011;1956;53.482;10.238;2023-02-28T19:27:38;7.97;;;3.83;;
3881;SDS011;1956;53.482;10.238;2023-02-28T19:32:39;4.00;;;3.37;;
3881;SDS011;1956;53.482;10.238;2023-02-28T19:37:39;10.23;;;5.70;;
3881;SDS011;1956;53.482;10.238;2023-02-28T19:42:40;6.73;;;6.07;;
3881;SDS011;1956;53.482;10.238;2023-02-28T19:47:46;9.53;;;6.57;;
3881;SDS011;1956;53.482;10.238;2023-02-28T19:52:47;8.10;;;6.37;;
3881;SDS011;1956;53.482;10.238;2023-02-28T19:57:48;25.83;;;14.47;;
3881;SDS011;1956;53.482;10.238;2023-02-28T20:02:48;18.57;;;10.60;;
3881;SDS011;1956;53.482;10.238;2023-02-28T20:07:49;19.10;;;10.60;;
3881;SDS011;1956;53.482;10.238;2023-02-28T20:12:49;22.80;;;12.03;;
3881;SDS011;1956;53.482;10.238;2023-02-28T20:17:49;20.47;;;13.60;;
3881;SDS011;1956;53.482;10.238;2023-02-28T20:22:50;21.77;;;13.07;;
3881;SDS011;1956;53.482;10.238;2023-02-28T20:27:50;23.47;;;15.30;;
3881;SDS011;1956;53.482;10.238;2023-02-28T20:32:51;23.73;;;14.13;;
3881;SDS011;1956;53.482;10.238;2023-02-28T20:37:51;20.47;;;13.10;;
3881;SDS011;1956;53.482;10.238;2023-02-28T20:42:53;21.40;;;11.87;;
3881;SDS011;1956;53.482;10.238;2023-02-28T20:47:53;14.13;;;9.50;;
3881;SDS011;1956;53.482;10.238;2023-02-28T20:52:54;13.37;;;7.17;;
3881;SDS011;1956;53.482;10.238;2023-02-28T20:57:54;11.70;;;7.53;;
3881;SDS011;1956;53.482;10.238;2023-02-28T21:02:55;8.43;;;5.50;;
3881;SDS011;1956;53.482;10.238;2023-02-28T21:07:55;7.50;;;5.07;;
3881;SDS011;1956;53.482;10.238;2023-02-28T21:12:56;7.27;;;5.50;;
3881;SDS011;1956;53.482;10.238;2023-02-28T21:17:56;9.90;;;5.70;;
3881;SDS011;1956;53.482;10.238;2023-02-28T21:22:57;11.07;;;4.93;;
3881;SDS011;1956;53.482;10.238;2023-02-28T21:27:57;5.30;;;4.60;;
3881;SDS011;1956;53.482;10.238;2023-02-28T21:32:58;6.00;;;4.80;;
3881;SDS011;1956;53.482;10.238;2023-02-28T21:37:58;4.43;;;3.93;;
3881;SDS011;1956;53.482;10.238;2023-02-28T21:42:58;5.63;;;4.30;;
3881;SDS011;1956;53.482;10.238;2023-02-28T21:47:59;7.30;;;3.40;;
3881;SDS011;1956;53.482;10.238;2023-02-28T21:52:59;4.83;;;3.20;;
3881;SDS011;1956;53.482;10.238;2023-02-28T21:57:59;3.13;;;2.50;;
3881;SDS011;1956;53.482;10.238;2023-02-28T22:03:00;6.93;;;3.70;;
3881;SDS011;1956;53.482;10.238;2023-02-28T22:08:00;4.17;;;3.40;;
3881;SDS011;1956;53.482;10.238;2023-02-28T22:13:01;2.93;;;2.40;;
3881;SDS011;1956;53.482;10.238;2023-02-28T22:18:02;12.17;;;2.90;;
3881;SDS011;1956;53.482;10.238;2023-02-28T22:23:03;4.57;;;2.40;;
3881;SDS011;1956;53.482;10.238;2023-02-28T22:28:03;2.67;;;2.00;;
3881;SDS011;1956;53.482;10.238;2023-02-28T22:33:03;7.30;;;4.67;;
3881;SDS011;1956;53.482;10.238;2023-02-28T22:38:04;9.83;;;4.47;;
3881;SDS011;1956;53.482;10.238;2023-02-28T22:43:04;7.00;;;4.63;;
3881;SDS011;1956;53.482;10.238;2023-02-28T22:48:06;12.93;;;7.53;;
3881;SDS011;1956;53.482;10.238;2023-02-28T22:53:07;20.77;;;9.90;;
3881;SDS011;1956;53.482;10.238;2023-02-28T22:58:08;16.50;;;8.50;;
3881;SDS011;1956;53.482;10.238;2023-02-28T23:03:08;12.70;;;7.73;;
3881;SDS011;1956;53.482;10.238;2023-02-28T23:08:08;14.43;;;8.23;;
3881;SDS011;1956;53.482;10.238;2023-02-28T23:13:09;19.33;;;6.93;;
3881;SDS011;1956;53.482;10.238;2023-02-28T23:18:09;12.77;;;7.90;;
3881;SDS011;1956;53.482;10.238;2023-02-28T23:23:09;15.07;;;7.67;;
3881;SDS011;1956;53.482;10.238;2023-02-28T23:28:11;12.30;;;6.73;;
3881;SDS011;1956;53.482;10.238;2023-02-28T23:33:12;11.97;;;7.50;;
3881;SDS011;1956;53.482;10.238;2023-02-28T23:38:12;12.52;;;7.53;;
3881;SDS011;1956;53.482;10.238;2023-02-28T23:43:12;13.07;;;8.83;;
3881;SDS011;1956;53.482;10.238;2023-02-28T23:48:13;13.17;;;7.60;;
3881;SDS011;1956;53.482;10.238;2023-02-28T23:53:13;10.07;;;7.00;;
3881;SDS011;1956;53.482;10.238;2023-02-28T23:58:14;12.43;;;6.43;;
